createdAt,value
2018-01-27T00:01:13.856Z,9.11
2018-01-27T00:03:46.369Z,9.11
2018-01-27T00:06:18.882Z,9.05
2018-01-27T00:08:51.396Z,9.05
2018-01-27T00:11:23.884Z,9.03
2018-01-27T00:13:56.400Z,9.04
2018-01-27T00:16:28.901Z,9.12
2018-01-27T00:19:01.504Z,9.13
2018-01-27T00:21:34.002Z,9.16
2018-01-27T00:24:06.518Z,9.17
2018-01-27T00:26:39.007Z,9.15
2018-01-27T00:29:11.529Z,9.15
2018-01-27T00:31:44.042Z,9.17
2018-01-27T00:34:16.565Z,9.18
2018-01-27T00:36:49.049Z,9.22
2018-01-27T00:39:21.550Z,9.25
2018-01-27T00:41:54.926Z,9.27
2018-01-27T00:44:27.451Z,9.25
2018-01-27T00:46:59.979Z,9.25
2018-01-27T00:49:32.489Z,9.26
2018-01-27T00:52:05.001Z,9.30
2018-01-27T00:54:37.508Z,9.27
2018-01-27T00:57:09.998Z,9.25
2018-01-27T00:59:42.532Z,9.28
2018-01-27T01:02:15.049Z,9.33
2018-01-27T01:04:47.566Z,9.35
2018-01-27T01:07:20.051Z,9.37
2018-01-27T01:09:52.570Z,9.25
2018-01-27T01:12:25.077Z,9.25
2018-01-27T01:14:57.592Z,9.27
2018-01-27T01:17:30.101Z,9.28
2018-01-27T01:20:02.605Z,9.31
2018-01-27T01:22:35.133Z,9.31
2018-01-27T01:25:07.633Z,9.26
2018-01-27T01:27:40.148Z,9.23
2018-01-27T01:30:12.641Z,9.25
2018-01-27T01:32:45.151Z,9.24
2018-01-27T01:35:17.639Z,9.28
2018-01-27T01:37:50.151Z,9.27
2018-01-27T01:40:22.639Z,9.28
2018-01-27T01:43:00.651Z,9.32
2018-01-27T01:45:33.149Z,9.42
2018-01-27T01:48:05.675Z,9.43
2018-01-27T01:50:38.175Z,9.44
2018-01-27T01:53:10.687Z,9.42
2018-01-27T01:55:43.177Z,9.40
2018-01-27T01:58:15.692Z,9.35
2018-01-27T02:00:48.195Z,9.31
2018-01-27T02:03:20.714Z,9.29
2018-01-27T02:05:53.209Z,9.22
2018-01-27T02:08:25.728Z,9.23
2018-01-27T02:10:58.273Z,9.25
2018-01-27T02:13:30.783Z,9.19
2018-01-27T02:16:03.267Z,9.18
2018-01-27T02:18:35.771Z,9.25
2018-01-27T02:21:08.254Z,9.26
2018-01-27T02:23:41.600Z,9.24
2018-01-27T02:26:14.094Z,9.22
2018-01-27T02:28:46.631Z,9.20
2018-01-27T02:31:19.128Z,9.15
2018-01-27T02:33:51.704Z,9.13
2018-01-27T02:36:24.205Z,9.07
2018-01-27T02:38:56.731Z,8.90
2018-01-27T02:41:29.224Z,9.01
2018-01-27T02:44:01.762Z,8.98
2018-01-27T02:46:34.271Z,9.08
2018-01-27T02:49:06.786Z,9.17
2018-01-27T02:51:39.288Z,9.23
2018-01-27T02:54:11.799Z,9.27
2018-01-27T02:56:44.305Z,9.31
2018-01-27T02:59:16.824Z,9.27
2018-01-27T03:01:49.325Z,9.23
2018-01-27T03:04:21.836Z,9.16
2018-01-27T03:06:54.355Z,9.26
2018-01-27T03:09:26.879Z,9.28
2018-01-27T03:11:59.360Z,9.28
2018-01-27T03:14:31.882Z,9.23
2018-01-27T03:17:04.384Z,9.22
2018-01-27T03:19:36.902Z,9.26
2018-01-27T03:22:09.397Z,9.30
2018-01-27T03:24:41.912Z,9.35
2018-01-27T03:27:14.414Z,9.28
2018-01-27T03:29:47.015Z,9.38
2018-01-27T03:32:19.512Z,9.40
2018-01-27T03:34:53.858Z,9.21
2018-01-27T03:37:26.356Z,9.17
2018-01-27T03:39:58.862Z,9.20
2018-01-27T03:42:31.344Z,9.18
2018-01-27T03:45:03.865Z,9.21
2018-01-27T03:47:36.364Z,9.27
2018-01-27T03:50:08.870Z,9.33
2018-01-27T03:52:41.448Z,9.34
2018-01-27T03:55:13.957Z,9.37
2018-01-27T03:57:46.449Z,9.35
2018-01-27T04:00:18.962Z,9.37
2018-01-27T04:02:51.459Z,9.38
2018-01-27T04:05:23.981Z,9.39
2018-01-27T04:07:56.466Z,9.39
2018-01-27T04:10:29.062Z,9.40
2018-01-27T04:13:01.550Z,9.37
2018-01-27T04:15:34.059Z,9.29
2018-01-27T04:18:06.545Z,9.32
2018-01-27T04:20:39.091Z,9.35
2018-01-27T04:23:11.590Z,9.36
2018-01-27T04:25:44.107Z,9.34
2018-01-27T04:28:16.599Z,9.34
2018-01-27T04:30:49.138Z,9.34
2018-01-27T04:33:21.635Z,9.35
2018-01-27T04:35:54.147Z,9.35
2018-01-27T04:38:26.641Z,9.34
2018-01-27T04:40:59.162Z,9.28
2018-01-27T04:43:31.666Z,9.28
2018-01-27T04:46:04.186Z,9.19
2018-01-27T04:48:36.715Z,9.07
2018-01-27T04:51:09.201Z,9.12
2018-01-27T04:53:41.712Z,9.16
2018-01-27T04:56:14.209Z,9.20
2018-01-27T04:58:46.727Z,9.22
2018-01-27T05:01:19.220Z,9.25
2018-01-27T05:03:51.735Z,9.23
2018-01-27T05:06:24.249Z,9.21
2018-01-27T05:08:56.767Z,9.25
2018-01-27T05:11:29.264Z,9.22
2018-01-27T05:14:01.768Z,9.11
2018-01-27T05:16:34.241Z,9.11
2018-01-27T05:19:06.753Z,9.17
2018-01-27T05:21:39.270Z,9.08
2018-01-27T05:24:11.800Z,8.99
2018-01-27T05:26:44.282Z,9.08
2018-01-27T05:29:16.797Z,9.20
2018-01-27T05:31:49.301Z,9.25
2018-01-27T05:34:21.825Z,9.23
2018-01-27T05:36:55.381Z,9.19
2018-01-27T05:39:27.896Z,9.19
2018-01-27T05:42:00.392Z,9.17
2018-01-27T05:44:32.895Z,9.17
2018-01-27T05:47:05.397Z,9.22
2018-01-27T05:49:37.911Z,9.24
2018-01-27T05:52:10.415Z,9.23
2018-01-27T05:54:42.957Z,9.24
2018-01-27T05:57:15.448Z,9.17
2018-01-27T05:59:47.957Z,9.14
2018-01-27T06:02:20.459Z,9.13
2018-01-27T06:04:52.984Z,9.17
2018-01-27T06:07:25.479Z,9.24
2018-01-27T06:09:57.990Z,9.22
2018-01-27T06:12:30.482Z,9.24
2018-01-27T06:15:03.002Z,9.25
2018-01-27T06:17:35.489Z,9.20
2018-01-27T06:20:08.011Z,9.20
2018-01-27T06:22:40.509Z,9.23
2018-01-27T06:25:13.015Z,9.23
2018-01-27T06:27:45.510Z,9.27
2018-01-27T06:30:18.031Z,9.24
2018-01-27T06:32:50.512Z,9.25
2018-01-27T06:35:23.030Z,9.28
2018-01-27T06:37:55.537Z,9.27
2018-01-27T06:40:28.058Z,9.25
2018-01-27T06:43:00.565Z,9.20
2018-01-27T06:45:33.074Z,9.19
2018-01-27T06:48:06.504Z,8.99
2018-01-27T06:50:39.018Z,8.95
2018-01-27T06:53:11.511Z,9.04
2018-01-27T06:55:44.023Z,9.10
2018-01-27T06:58:16.683Z,9.15
2018-01-27T07:00:49.191Z,9.19
2018-01-27T07:03:21.685Z,9.22
2018-01-27T07:05:54.208Z,9.19
2018-01-27T07:08:26.709Z,9.12
2018-01-27T07:10:59.215Z,9.02
2018-01-27T07:13:31.709Z,9.03
2018-01-27T07:16:04.217Z,9.06
2018-01-27T07:18:37.274Z,9.06
2018-01-27T07:21:09.815Z,9.09
2018-01-27T07:23:42.352Z,9.14
2018-01-27T07:26:14.867Z,9.18
2018-01-27T07:28:48.279Z,9.04
2018-01-27T07:31:27.176Z,8.91
2018-01-27T07:33:59.672Z,8.95
2018-01-27T07:36:32.189Z,8.89
2018-01-27T07:39:04.693Z,8.73
2018-01-27T07:41:37.219Z,8.67
2018-01-27T07:44:09.716Z,8.58
2018-01-27T07:46:42.226Z,8.44
2018-01-27T07:49:14.720Z,8.50
2018-01-27T07:51:47.226Z,8.70
2018-01-27T07:54:19.722Z,8.89
2018-01-27T07:56:52.227Z,8.97
2018-01-27T07:59:24.750Z,9.05
2018-01-27T08:01:57.266Z,9.11
2018-01-27T08:04:29.755Z,9.10
2018-01-27T08:07:02.514Z,9.06
2018-01-27T08:09:35.056Z,9.04
2018-01-27T08:12:07.574Z,9.14
2018-01-27T08:14:40.084Z,9.16
2018-01-27T08:17:12.598Z,9.09
2018-01-27T08:19:45.101Z,9.14
2018-01-27T08:22:17.621Z,9.16
2018-01-27T08:24:50.164Z,9.12
2018-01-27T08:27:22.667Z,9.01
2018-01-27T08:29:55.180Z,9.05
2018-01-27T08:32:27.737Z,9.01
2018-01-27T08:35:00.246Z,9.08
2018-01-27T08:37:32.728Z,9.18
2018-01-27T08:40:05.246Z,9.18
2018-01-27T08:42:38.548Z,9.18
2018-01-27T08:45:11.094Z,9.17
2018-01-27T08:47:43.605Z,9.14
2018-01-27T08:50:16.129Z,9.27
2018-01-27T08:52:48.639Z,9.39
2018-01-27T08:55:22.071Z,9.47
2018-01-27T08:57:54.602Z,9.49
2018-01-27T09:00:27.116Z,9.45
2018-01-27T09:02:59.619Z,9.21
2018-01-27T09:05:32.157Z,9.14
2018-01-27T09:08:04.651Z,9.07
2018-01-27T09:10:37.644Z,9.11
2018-01-27T09:13:10.277Z,9.03
2018-01-27T09:15:42.897Z,9.12
2018-01-27T09:18:15.408Z,9.17
2018-01-27T09:20:47.925Z,9.06
2018-01-27T09:23:20.418Z,9.25
2018-01-27T09:25:52.964Z,9.38
2018-01-27T09:28:25.459Z,9.40
2018-01-27T09:30:57.979Z,9.54
2018-01-27T09:33:30.500Z,9.53
2018-01-27T09:36:03.012Z,9.51
2018-01-27T09:38:35.561Z,9.44
2018-01-27T09:41:08.140Z,9.35
2018-01-27T09:43:40.628Z,9.55
2018-01-27T09:46:13.161Z,9.52
2018-01-27T09:48:45.673Z,9.45
2018-01-27T09:51:18.191Z,9.55
2018-01-27T09:53:50.679Z,9.52
2018-01-27T09:56:23.226Z,9.39
2018-01-27T09:58:55.767Z,9.46
2018-01-27T10:01:28.297Z,9.61
2018-01-27T10:04:00.795Z,9.38
2018-01-27T10:06:33.309Z,9.42
2018-01-27T10:09:05.837Z,9.31
2018-01-27T10:11:38.345Z,9.55
2018-01-27T10:14:10.834Z,9.64
2018-01-27T10:16:43.368Z,9.85
2018-01-27T10:19:15.882Z,9.89
2018-01-27T10:21:48.407Z,9.97
2018-01-27T10:24:20.897Z,9.61
2018-01-27T10:26:53.410Z,9.59
2018-01-27T10:29:25.916Z,9.65
2018-01-27T10:31:58.432Z,9.86
2018-01-27T10:34:30.919Z,9.84
2018-01-27T10:37:03.425Z,9.57
2018-01-27T10:39:35.917Z,9.70
2018-01-27T10:42:08.452Z,9.64
2018-01-27T10:44:40.946Z,9.57
2018-01-27T10:47:13.464Z,9.05
2018-01-27T10:49:45.955Z,9.52
2018-01-27T10:52:18.495Z,9.31
2018-01-27T10:54:51.069Z,9.42
2018-01-27T10:57:23.609Z,9.67
2018-01-27T10:59:56.103Z,9.75
2018-01-27T11:02:28.615Z,9.86
2018-01-27T11:05:01.095Z,9.94
2018-01-27T11:07:33.638Z,10.07
2018-01-27T11:10:06.136Z,9.74
2018-01-27T11:12:38.651Z,9.64
2018-01-27T11:15:11.139Z,9.91
2018-01-27T11:17:43.683Z,10.01
2018-01-27T11:20:16.208Z,10.10
2018-01-27T11:22:48.728Z,10.28
2018-01-27T11:25:21.487Z,10.32
2018-01-27T11:27:54.434Z,10.21
2018-01-27T11:30:27.287Z,10.20
2018-01-27T11:33:00.087Z,10.28
2018-01-27T11:35:33.014Z,10.40
2018-01-27T11:38:05.939Z,10.47
2018-01-27T11:40:38.444Z,10.61
2018-01-27T11:43:11.417Z,10.61
2018-01-27T11:45:44.001Z,10.51
2018-01-27T11:48:16.843Z,10.71
2018-01-27T11:50:49.651Z,10.54
2018-01-27T11:53:22.365Z,10.76
2018-01-27T11:55:55.148Z,10.84
2018-01-27T11:58:27.700Z,10.88
2018-01-27T12:01:00.451Z,10.94
2018-01-27T12:03:32.980Z,10.96
2018-01-27T12:06:05.504Z,10.96
2018-01-27T12:08:39.113Z,10.86
2018-01-27T12:11:12.137Z,10.61
2018-01-27T12:13:44.878Z,10.67
2018-01-27T12:16:17.496Z,10.75
2018-01-27T12:18:50.006Z,10.65
2018-01-27T12:21:22.737Z,10.70
2018-01-27T12:23:55.599Z,10.78
2018-01-27T12:26:28.115Z,10.58
2018-01-27T12:29:00.616Z,10.80
2018-01-27T12:31:33.139Z,10.84
2018-01-27T12:34:05.642Z,10.83
2018-01-27T12:36:38.160Z,10.97
2018-01-27T12:39:10.652Z,10.65
2018-01-27T12:41:43.158Z,10.93
2018-01-27T12:44:15.655Z,10.83
2018-01-27T12:46:48.175Z,10.91
2018-01-27T12:49:20.788Z,10.66
2018-01-27T12:51:53.309Z,10.71
2018-01-27T12:54:25.812Z,10.63
2018-01-27T12:56:58.341Z,10.28
2018-01-27T12:59:30.850Z,10.20
2018-01-27T13:02:03.356Z,10.38
2018-01-27T13:04:35.843Z,10.56
2018-01-27T13:07:08.364Z,10.57
2018-01-27T13:09:40.892Z,10.59
2018-01-27T13:12:13.415Z,10.76
2018-01-27T13:14:45.949Z,10.88
2018-01-27T13:17:18.472Z,10.60
2018-01-27T13:19:50.975Z,10.69
2018-01-27T13:22:23.592Z,10.96
2018-01-27T13:24:56.118Z,11.09
2018-01-27T13:27:28.642Z,11.11
2018-01-27T13:30:01.150Z,11.16
2018-01-27T13:32:33.669Z,10.91
2018-01-27T13:35:06.174Z,10.72
2018-01-27T13:37:38.683Z,11.09
2018-01-27T13:40:11.181Z,11.08
2018-01-27T13:42:43.716Z,10.75
2018-01-27T13:45:16.217Z,10.67
2018-01-27T13:47:48.770Z,10.90
2018-01-27T13:50:21.268Z,10.96
2018-01-27T13:52:53.772Z,10.88
2018-01-27T13:55:26.266Z,10.65
2018-01-27T13:57:58.776Z,10.89
2018-01-27T14:00:31.282Z,10.86
2018-01-27T14:03:03.822Z,10.82
2018-01-27T14:05:36.329Z,10.67
2018-01-27T14:08:08.845Z,10.70
2018-01-27T14:10:41.448Z,10.92
2018-01-27T14:13:13.951Z,10.69
2018-01-27T14:15:46.450Z,10.84
2018-01-27T14:18:18.960Z,10.90
2018-01-27T14:20:51.456Z,10.81
2018-01-27T14:23:23.988Z,10.89
2018-01-27T14:25:56.513Z,11.05
2018-01-27T14:28:29.033Z,10.75
2018-01-27T14:31:01.531Z,10.59
2018-01-27T14:33:34.035Z,10.71
2018-01-27T14:36:06.519Z,10.61
2018-01-27T14:38:39.034Z,10.59
2018-01-27T14:41:11.518Z,10.63
2018-01-27T14:43:44.030Z,10.51
2018-01-27T14:46:16.527Z,10.46
2018-01-27T14:48:49.062Z,10.48
2018-01-27T14:51:21.577Z,10.53
2018-01-27T14:53:54.152Z,10.42
2018-01-27T14:56:26.655Z,10.48
2018-01-27T14:58:59.174Z,10.46
2018-01-27T15:01:31.667Z,10.49
2018-01-27T15:04:04.174Z,10.44
2018-01-27T15:06:36.668Z,10.45
2018-01-27T15:09:09.180Z,10.49
2018-01-27T15:11:41.680Z,10.40
2018-01-27T15:14:14.214Z,10.39
2018-01-27T15:16:46.716Z,10.26
2018-01-27T15:19:19.235Z,10.02
2018-01-27T15:21:51.734Z,10.04
2018-01-27T15:24:24.268Z,10.05
2018-01-27T15:26:56.763Z,10.02
2018-01-27T15:29:30.193Z,9.83
2018-01-27T15:32:02.701Z,9.86
2018-01-27T15:34:35.270Z,9.87
2018-01-27T15:37:07.769Z,9.79
2018-01-27T15:39:40.277Z,9.82
2018-01-27T15:42:12.767Z,9.82
2018-01-27T15:44:45.376Z,9.70
2018-01-27T15:47:17.857Z,9.72
2018-01-27T15:49:50.367Z,9.66
2018-01-27T15:52:22.910Z,9.64
2018-01-27T15:54:55.446Z,9.48
2018-01-27T15:57:27.965Z,9.43
2018-01-27T16:00:00.468Z,9.39
2018-01-27T16:02:32.980Z,9.39
2018-01-27T16:05:05.638Z,9.12
2018-01-27T16:07:38.239Z,9.24
2018-01-27T16:10:10.794Z,9.23
2018-01-27T16:12:43.316Z,9.14
2018-01-27T16:15:15.814Z,9.12
2018-01-27T16:17:48.355Z,8.95
2018-01-27T16:20:20.851Z,9.12
2018-01-27T16:22:53.366Z,9.18
2018-01-27T16:25:27.803Z,9.18
2018-01-27T16:28:00.316Z,9.12
2018-01-27T16:30:32.826Z,9.14
2018-01-27T16:33:05.338Z,8.88
2018-01-27T16:35:37.829Z,8.79
2018-01-27T16:38:10.336Z,8.72
2018-01-27T16:40:42.835Z,8.58
2018-01-27T16:43:15.358Z,8.59
2018-01-27T16:45:47.873Z,8.53
2018-01-27T16:48:20.421Z,8.49
2018-01-27T16:50:52.937Z,8.56
2018-01-27T16:53:25.451Z,8.58
2018-01-27T16:55:57.943Z,8.51
2018-01-27T16:58:30.454Z,8.58
2018-01-27T17:01:02.953Z,8.52
2018-01-27T17:03:35.464Z,8.50
2018-01-27T17:06:07.951Z,8.45
2018-01-27T17:08:40.463Z,8.45
2018-01-27T17:11:12.950Z,8.41
2018-01-27T17:13:45.497Z,8.34
2018-01-27T17:16:17.982Z,8.20
2018-01-27T17:18:50.553Z,8.10
2018-01-27T17:21:28.996Z,8.14
2018-01-27T17:24:01.505Z,8.21
2018-01-27T17:26:33.999Z,8.15
2018-01-27T17:29:06.517Z,8.08
2018-01-27T17:31:39.016Z,8.16
2018-01-27T17:34:11.529Z,8.14
2018-01-27T17:36:44.121Z,8.15
2018-01-27T17:39:16.655Z,8.01
2018-01-27T17:41:49.154Z,7.98
2018-01-27T17:44:21.673Z,7.97
2018-01-27T17:46:54.172Z,8.01
2018-01-27T17:49:26.687Z,7.75
2018-01-27T17:51:59.194Z,7.90
2018-01-27T17:54:31.715Z,8.03
2018-01-27T17:57:04.211Z,8.06
2018-01-27T18:02:15.640Z,8.01
2018-01-27T18:04:48.142Z,7.95
2018-01-27T18:07:20.639Z,7.98
2018-01-27T18:09:53.174Z,7.92
2018-01-27T18:12:25.689Z,7.93
2018-01-27T18:14:58.211Z,8.04
2018-01-27T18:17:30.711Z,8.00
2018-01-27T18:20:03.214Z,8.01
2018-01-27T18:22:35.719Z,8.07
2018-01-27T18:25:08.311Z,8.18
2018-01-27T18:27:40.830Z,7.98
2018-01-27T18:30:13.639Z,8.03
2018-01-27T18:32:46.256Z,7.96
2018-01-27T18:35:18.775Z,8.05
2018-01-27T18:37:51.306Z,8.18
2018-01-27T18:40:23.805Z,8.13
2018-01-27T18:42:56.309Z,8.19
2018-01-27T18:45:28.836Z,8.12
2018-01-27T18:48:01.337Z,8.11
2018-01-27T18:50:33.846Z,8.04
2018-01-27T18:53:06.398Z,8.06
2018-01-27T18:55:38.908Z,8.18
2018-01-27T18:58:11.403Z,8.22
2018-01-27T19:00:43.926Z,8.24
2018-01-27T19:03:16.442Z,8.10
2018-01-27T19:05:48.954Z,7.99
2018-01-27T19:08:21.444Z,8.12
2018-01-27T19:10:53.971Z,8.11
2018-01-27T19:13:26.513Z,8.32
2018-01-27T19:15:59.037Z,8.24
2018-01-27T19:18:31.554Z,8.23
2018-01-27T19:21:04.066Z,8.16
2018-01-27T19:23:36.617Z,8.05
2018-01-27T19:26:09.225Z,8.25
2018-01-27T19:28:41.848Z,8.26
2018-01-27T19:31:14.399Z,8.47
2018-01-27T19:33:46.916Z,8.35
2018-01-27T19:36:19.419Z,8.22
2018-01-27T19:38:51.947Z,8.27
2018-01-27T19:41:24.552Z,8.09
2018-01-27T19:43:57.079Z,8.18
2018-01-27T19:46:29.569Z,8.54
2018-01-27T19:49:02.084Z,8.23
2018-01-27T19:51:34.589Z,8.18
2018-01-27T19:54:07.111Z,8.47
2018-01-27T19:56:39.613Z,8.25
2018-01-27T19:59:12.416Z,8.23
2018-01-27T20:01:44.955Z,8.35
2018-01-27T20:04:17.477Z,8.43
2018-01-27T20:06:49.963Z,8.07
2018-01-27T20:09:22.541Z,8.45
2018-01-27T20:11:55.114Z,8.32
2018-01-27T20:14:28.825Z,8.66
2018-01-27T20:17:01.604Z,8.71
2018-01-27T20:19:34.151Z,8.77
2018-01-27T20:22:06.694Z,8.80
2018-01-27T20:24:39.232Z,8.76
2018-01-27T20:27:11.730Z,8.73
2018-01-27T20:29:44.282Z,8.66
2018-01-27T20:32:16.912Z,8.61
2018-01-27T20:34:49.410Z,8.76
2018-01-27T20:37:21.992Z,8.45
2018-01-27T20:39:54.470Z,8.48
2018-01-27T20:42:26.992Z,8.09
2018-01-27T20:44:59.495Z,8.27
2018-01-27T20:47:32.005Z,8.64
2018-01-27T20:50:04.527Z,8.50
2018-01-27T20:52:37.038Z,8.64
2018-01-27T20:55:09.544Z,8.81
2018-01-27T20:57:42.054Z,8.78
2018-01-27T21:00:14.586Z,8.47
2018-01-27T21:02:47.086Z,8.36
2018-01-27T21:05:19.590Z,8.58
2018-01-27T21:07:52.092Z,8.50
2018-01-27T21:10:24.591Z,8.46
2018-01-27T21:12:57.137Z,8.50
2018-01-27T21:15:29.626Z,8.64
2018-01-27T21:18:02.118Z,8.60
2018-01-27T21:20:34.613Z,8.52
2018-01-27T21:23:07.109Z,8.49
2018-01-27T21:25:39.638Z,8.57
2018-01-27T21:28:12.370Z,8.62
2018-01-27T21:30:44.887Z,8.68
2018-01-27T21:33:17.376Z,8.67
2018-01-27T21:35:49.874Z,8.64
2018-01-27T21:38:22.372Z,8.66
2018-01-27T21:40:54.866Z,8.85
2018-01-27T21:43:27.367Z,8.47
2018-01-27T21:45:59.904Z,8.63
2018-01-27T21:48:32.414Z,8.56
2018-01-27T21:51:04.906Z,8.80
2018-01-27T21:53:37.388Z,8.83
2018-01-27T21:56:09.898Z,8.58
2018-01-27T21:58:42.387Z,8.56
2018-01-27T22:01:14.895Z,8.73
2018-01-27T22:03:47.387Z,8.58
2018-01-27T22:06:19.886Z,8.69
2018-01-27T22:08:52.399Z,8.31
2018-01-27T22:11:24.890Z,8.63
2018-01-27T22:13:57.380Z,8.68
2018-01-27T22:16:29.886Z,8.65
2018-01-27T22:19:02.397Z,8.93
2018-01-27T22:21:34.897Z,8.91
2018-01-27T22:24:07.389Z,8.83
2018-01-27T22:26:39.892Z,8.68
2018-01-27T22:29:12.412Z,8.69
2018-01-27T22:31:44.918Z,8.76
2018-01-27T22:34:17.427Z,8.91
2018-01-27T22:36:49.931Z,8.70
2018-01-27T22:39:22.433Z,8.45
2018-01-27T22:41:54.938Z,8.63
2018-01-27T22:44:27.428Z,8.67
2018-01-27T22:46:59.925Z,8.69
2018-01-27T22:49:32.432Z,8.98
2018-01-27T22:52:04.928Z,8.86
2018-01-27T22:54:37.414Z,8.65
2018-01-27T22:57:09.910Z,8.78
2018-01-27T22:59:42.424Z,8.49
2018-01-27T23:02:14.937Z,8.85
2018-01-27T23:04:47.451Z,8.49
2018-01-27T23:07:19.943Z,8.62
2018-01-27T23:09:52.465Z,8.39
2018-01-27T23:12:24.967Z,8.46
2018-01-27T23:14:57.487Z,8.36
2018-01-27T23:17:29.986Z,8.43
2018-01-27T23:20:02.506Z,8.49
2018-01-27T23:22:35.004Z,8.30
2018-01-27T23:25:07.510Z,8.64
2018-01-27T23:27:40.015Z,8.30
2018-01-27T23:30:12.561Z,8.19
2018-01-27T23:32:45.079Z,8.14
2018-01-27T23:35:17.608Z,8.10
2018-01-27T23:37:51.068Z,8.25
2018-01-27T23:40:23.608Z,8.15
2018-01-27T23:42:56.099Z,8.15
2018-01-27T23:45:28.636Z,8.35
2018-01-27T23:48:01.131Z,8.44
2018-01-27T23:50:33.642Z,8.44
2018-01-27T23:53:06.145Z,8.47
2018-01-27T23:55:38.705Z,8.14
2018-01-27T23:58:11.209Z,8.10
